Terminal Aerodrome Forecast
Issued by NWS

Home | Current Version | Previous Version | Text Only | Print | Product List | Glossary On
Versions: 1 2 3 4 5 6 7 8 9 10 11 12
000
FTUS44 KTSA 051123
TAFXNA
TAF
KXNA 051123Z 0512/0612 00000KT P6SM SCT060
     FM051800 21008KT P6SM SCT050 BKN120 PROB30 0521/0601 5SM -TSRA
      BKN050CB
     FM060100 17003KT P6SM BKN250=

USA.gov is the U.S. government's official web portal to all federal, state and local government web resources and services.